Time;durP1;ratioP1;P1;durP2;ratioP2;P2;SDS_P1;SDS_P2;PMS_P1;PMS_P2;Temp;Humidity;BMP_temperature;BMP_pressure;BME280_temperature;BME280_humidity;BME280_pressure;Samples;Min_cycle;Max_cycle;Signal;HPM_P1;HPM_P2
2022/10/20 00:01:53;;;;;;;0.00;0.00;;;16.00;92.40;;;;;;3993261;29;20128;-63
2022/10/20 00:04:34;;;;;;;0.00;0.00;;;16.00;92.40;;;;;;4009012;29;20057;-63
2022/10/20 00:07:15;;;;;;;0.93;0.90;;;16.00;92.40;;;;;;4015093;29;20675;-61
2022/10/20 00:09:55;;;;;;;0.45;0.45;;;16.00;92.40;;;;;;4015540;29;20064;-61
2022/10/20 00:12:38;;;;;;;0.00;0.00;;;16.00;92.40;;;;;;3983734;29;20060;-65
2022/10/20 00:15:19;;;;;;;0.00;0.00;;;16.00;92.40;;;;;;4015229;29;20133;-64
2022/10/20 00:18:00;;;;;;;0.00;0.00;;;15.90;92.30;;;;;;4006166;29;20052;-64
2022/10/20 00:20:41;;;;;;;0.00;0.00;;;15.90;92.40;;;;;;4015619;29;20350;-64
2022/10/20 00:23:22;;;;;;;0.00;0.00;;;15.90;92.40;;;;;;4015518;29;20153;-63
2022/10/20 00:26:05;;;;;;;0.70;0.70;;;15.90;92.40;;;;;;4015266;29;20064;-65
2022/10/20 00:28:52;;;;;;;0.00;0.00;;;15.90;92.40;;;;;;4015197;29;20055;-63
2022/10/20 00:31:38;;;;;;;0.70;0.70;;;15.90;92.40;;;;;;4011211;29;20567;-63
2022/10/20 00:34:19;;;;;;;0.00;0.00;;;15.90;92.40;;;;;;3995697;29;20110;-63
2022/10/20 00:37:00;;;;;;;0.00;0.00;;;15.90;92.40;;;;;;4015024;29;20055;-63
2022/10/20 00:39:41;;;;;;;0.00;0.00;;;15.90;92.40;;;;;;4005752;29;20057;-64
2022/10/20 00:42:22;;;;;;;0.00;0.00;;;15.90;92.40;;;;;;4013560;29;20068;-63
2022/10/20 00:45:13;;;;;;;0.00;0.00;;;15.90;92.40;;;;;;4015159;29;20064;-64
2022/10/20 00:47:59;;;;;;;0.00;0.00;;;15.90;92.40;;;;;;4015275;29;20106;-61
2022/10/20 00:50:46;;;;;;;0.00;0.00;;;15.90;92.40;;;;;;4016766;29;20053;-61
2022/10/20 00:53:29;;;;;;;1.35;1.25;;;15.90;92.30;;;;;;4015235;29;20060;-61
2022/10/20 00:56:11;;;;;;;0.25;0.25;;;15.90;92.40;;;;;;4018792;29;20072;-60
2022/10/20 00:58:52;;;;;;;1.35;1.20;;;15.90;92.40;;;;;;4017142;29;20052;-60
2022/10/20 01:01:35;;;;;;;0.00;0.00;;;15.90;92.80;;;;;;4017144;29;20132;-63
2022/10/20 01:04:18;;;;;;;0.08;0.08;;;15.80;92.30;;;;;;4003041;29;20137;-60
2022/10/20 01:06:59;;;;;;;0.00;0.00;;;15.80;92.40;;;;;;4004440;29;20705;-60
2022/10/20 01:09:39;;;;;;;0.00;0.00;;;15.80;92.30;;;;;;4018469;29;20394;-60
2022/10/20 01:12:30;;;;;;;0.00;0.00;;;15.80;92.20;;;;;;4018288;29;20064;-60
2022/10/20 01:15:20;;;;;;;0.00;0.00;;;15.80;92.40;;;;;;4017933;29;20056;-60
2022/10/20 01:18:12;;;;;;;0.00;0.00;;;15.80;92.40;;;;;;4017299;29;20158;-61
2022/10/20 01:21:14;;;;;;;1.08;1.08;;;15.80;92.40;;;;;;4017413;29;20060;-61
2022/10/20 01:24:10;;;;;;;0.00;0.00;;;15.80;92.40;;;;;;4017414;29;20534;-61
2022/10/20 01:27:30;;;;;;;0.00;0.00;;;15.80;92.40;;;;;;4017507;29;20133;-61
2022/10/20 01:30:16;;;;;;;0.00;0.00;;;15.80;92.40;;;;;;4017301;29;20145;-60
2022/10/20 01:33:20;;;;;;;0.00;0.00;;;15.80;92.40;;;;;;4017561;29;20084;-61
2022/10/20 01:36:05;;;;;;;0.10;0.10;;;15.80;92.50;;;;;;4017576;29;20040;-60
2022/10/20 01:38:51;;;;;;;0.00;0.00;;;15.70;92.40;;;;;;4017698;29;20060;-60
2022/10/20 01:41:38;;;;;;;0.08;0.08;;;15.70;92.40;;;;;;4017724;29;20075;-60
2022/10/20 01:44:23;;;;;;;0.28;0.28;;;15.70;92.40;;;;;;4018137;29;20064;-60
2022/10/20 01:47:07;;;;;;;0.00;0.00;;;15.70;92.40;;;;;;4017580;29;20049;-60
2022/10/20 01:49:49;;;;;;;0.00;0.00;;;15.70;92.40;;;;;;4018082;29;20545;-61
2022/10/20 01:52:31;;;;;;;0.00;0.00;;;15.70;92.40;;;;;;4017779;29;20098;-60
2022/10/20 01:55:14;;;;;;;0.25;0.25;;;15.70;92.40;;;;;;4017155;29;20060;-60
2022/10/20 01:58:24;;;;;;;0.03;0.03;;;15.70;92.40;;;;;;4017851;29;20052;-60
2022/10/20 02:01:17;;;;;;;0.00;0.00;;;15.70;92.40;;;;;;4006680;29;20052;-61
2022/10/20 02:04:02;;;;;;;0.00;0.00;;;15.70;92.40;;;;;;4002425;29;20091;-60
2022/10/20 02:06:53;;;;;;;0.00;0.00;;;15.70;92.40;;;;;;4002281;29;20122;-60
2022/10/20 02:09:39;;;;;;;0.57;0.57;;;15.60;92.40;;;;;;4002196;29;20418;-60
2022/10/20 02:12:24;;;;;;;0.00;0.00;;;15.60;92.40;;;;;;4002335;29;20061;-60
2022/10/20 02:15:07;;;;;;;0.00;0.00;;;15.60;92.40;;;;;;4014066;29;20632;-60
2022/10/20 02:17:52;;;;;;;0.03;0.03;;;15.60;92.40;;;;;;4016255;29;20093;-60
2022/10/20 02:20:34;;;;;;;0.00;0.00;;;15.60;92.40;;;;;;4017611;29;20064;-60
2022/10/20 02:23:15;;;;;;;0.00;0.00;;;15.60;92.40;;;;;;4017079;29;20155;-61
2022/10/20 02:25:59;;;;;;;0.00;0.00;;;15.60;92.40;;;;;;4017286;29;20185;-60
2022/10/20 02:28:46;;;;;;;0.50;0.50;;;15.60;92.40;;;;;;4007765;29;20412;-60
2022/10/20 02:31:27;;;;;;;0.00;0.00;;;15.60;92.40;;;;;;4016857;29;20278;-61
2022/10/20 02:34:09;;;;;;;0.00;0.00;;;15.60;92.40;;;;;;4016439;29;20052;-61
2022/10/20 02:36:54;;;;;;;0.10;0.10;;;15.60;92.80;;;;;;4005299;29;20133;-60
2022/10/20 02:39:36;;;;;;;0.00;0.00;;;15.60;92.40;;;;;;4016596;29;20133;-60
2022/10/20 02:42:17;;;;;;;0.10;0.10;;;15.60;92.40;;;;;;4015110;29;20061;-61
2022/10/20 02:44:57;;;;;;;0.10;0.10;;;15.60;92.40;;;;;;4016086;29;20437;-61
2022/10/20 02:47:38;;;;;;;0.00;0.00;;;15.50;92.40;;;;;;4000810;29;20060;-61
2022/10/20 02:50:20;;;;;;;0.00;0.00;;;15.50;92.40;;;;;;3989983;29;20482;-60
2022/10/20 02:53:02;;;;;;;0.00;0.00;;;15.50;92.40;;;;;;4001167;29;20619;-61
2022/10/20 02:55:45;;;;;;;0.00;0.00;;;15.60;92.40;;;;;;4000557;29;20403;-61
2022/10/20 02:58:26;;;;;;;0.43;0.43;;;15.50;92.40;;;;;;4000289;29;20513;-60
2022/10/20 03:01:07;;;;;;;0.00;0.00;;;15.50;92.40;;;;;;4015937;29;20063;-61
2022/10/20 03:03:48;;;;;;;0.03;0.03;;;15.50;92.40;;;;;;4015977;29;20073;-60
2022/10/20 03:06:28;;;;;;;0.00;0.00;;;15.50;92.40;;;;;;4016485;29;20075;-60
2022/10/20 03:09:15;;;;;;;0.00;0.00;;;15.50;92.40;;;;;;4006541;29;20549;-60
2022/10/20 03:11:56;;;;;;;0.00;0.00;;;15.50;92.40;;;;;;4003896;29;20052;-61
2022/10/20 03:14:41;;;;;;;0.20;0.20;;;15.50;92.80;;;;;;4013643;29;20583;-60
2022/10/20 03:17:22;;;;;;;0.00;0.00;;;15.50;92.40;;;;;;4014701;29;20416;-61
2022/10/20 03:20:05;;;;;;;0.10;0.10;;;15.50;92.40;;;;;;4015972;29;20197;-60
2022/10/20 03:22:46;;;;;;;0.00;0.00;;;15.50;92.30;;;;;;4015664;29;20068;-60
2022/10/20 03:25:30;;;;;;;0.00;0.00;;;15.40;92.30;;;;;;4016184;29;20068;-60
2022/10/20 03:28:14;;;;;;;0.00;0.00;;;15.40;92.30;;;;;;4015128;29;20857;-60
2022/10/20 03:30:55;;;;;;;0.00;0.00;;;15.40;92.30;;;;;;3999883;29;20072;-60
2022/10/20 03:33:35;;;;;;;0.00;0.00;;;15.40;92.30;;;;;;4001967;29;20095;-61
2022/10/20 03:36:16;;;;;;;0.27;0.27;;;15.40;92.30;;;;;;4014840;29;20057;-60
2022/10/20 03:38:57;;;;;;;0.00;0.00;;;15.40;92.30;;;;;;4015871;29;20301;-61
2022/10/20 03:41:39;;;;;;;0.00;0.00;;;15.40;92.30;;;;;;4015401;29;20062;-61
2022/10/20 03:44:20;;;;;;;0.00;0.00;;;15.40;92.30;;;;;;4015495;29;20092;-60
2022/10/20 03:47:01;;;;;;;0.00;0.00;;;15.40;92.30;;;;;;4016052;29;20785;-61
2022/10/20 03:49:42;;;;;;;0.00;0.00;;;15.40;92.30;;;;;;4014955;29;20497;-61
2022/10/20 03:52:23;;;;;;;0.00;0.00;;;15.40;92.30;;;;;;4015289;29;20061;-60
2022/10/20 03:55:05;;;;;;;0.00;0.00;;;15.40;92.40;;;;;;4015883;29;20060;-61
2022/10/20 03:57:47;;;;;;;;;;;15.40;92.40;;;;;;4008343;29;20060;-60
2022/10/20 04:00:28;;;;;;;0.00;0.00;;;15.40;92.40;;;;;;3993474;29;19963;-60
2022/10/20 04:03:09;;;;;;;0.00;0.00;;;15.40;92.30;;;;;;4012918;29;20061;-61
2022/10/20 04:05:52;;;;;;;0.15;0.15;;;15.30;92.30;;;;;;4000750;29;20122;-61
2022/10/20 04:08:33;;;;;;;0.00;0.00;;;15.30;92.30;;;;;;3988420;29;20405;-61
2022/10/20 04:11:14;;;;;;;0.00;0.00;;;15.30;92.30;;;;;;4015282;29;20129;-61
2022/10/20 04:13:59;;;;;;;0.00;0.00;;;15.30;92.40;;;;;;4014665;29;20056;-61
2022/10/20 04:16:40;;;;;;;0.38;0.38;;;15.30;92.30;;;;;;4014568;29;20109;-61
2022/10/20 04:19:21;;;;;;;;;;;15.30;92.80;;;;;;3999447;29;20526;-60
2022/10/20 04:22:02;;;;;;;0.25;0.25;;;15.30;92.40;;;;;;3999784;29;20336;-61
2022/10/20 04:24:44;;;;;;;0.00;0.00;;;15.30;92.40;;;;;;4014615;29;20064;-60
2022/10/20 04:27:25;;;;;;;0.08;0.08;;;15.30;92.40;;;;;;4029363;29;20067;-60
2022/10/20 04:30:09;;;;;;;3.33;0.75;;;15.20;92.40;;;;;;4020330;29;20052;-61
2022/10/20 04:32:50;;;;;;;0.00;0.00;;;15.20;92.40;;;;;;4020224;29;20060;-60
2022/10/20 04:35:31;;;;;;;0.10;0.10;;;15.20;92.40;;;;;;3974262;29;20199;-61
2022/10/20 04:38:12;;;;;;;0.00;0.00;;;15.20;92.40;;;;;;3989152;29;20065;-61
2022/10/20 04:40:56;;;;;;;0.00;0.00;;;15.20;92.40;;;;;;3999798;29;20064;-60
2022/10/20 04:43:42;;;;;;;0.00;0.00;;;15.20;92.40;;;;;;4015708;29;20052;-61
2022/10/20 04:46:25;;;;;;;0.00;0.00;;;15.20;92.40;;;;;;4014544;29;20470;-60
2022/10/20 04:49:07;;;;;;;0.22;0.22;;;15.20;92.40;;;;;;4004728;29;20158;-61
2022/10/20 04:51:48;;;;;;;0.00;0.00;;;15.20;92.40;;;;;;4014689;29;20056;-60
2022/10/20 04:54:32;;;;;;;0.00;0.00;;;15.20;92.40;;;;;;4018329;29;20073;-61
2022/10/20 04:57:16;;;;;;;0.00;0.00;;;15.20;92.40;;;;;;4022410;29;20633;-60
2022/10/20 04:59:58;;;;;;;0.00;0.00;;;15.20;92.40;;;;;;4029500;29;20151;-60
2022/10/20 05:02:40;;;;;;;0.00;0.00;;;15.10;92.40;;;;;;3997709;29;20053;-60
2022/10/20 05:05:22;;;;;;;0.03;0.03;;;15.10;92.40;;;;;;4015488;29;20069;-61
2022/10/20 05:08:06;;;;;;;0.00;0.00;;;15.20;92.40;;;;;;4013664;29;20062;-60
2022/10/20 05:10:47;;;;;;;0.00;0.00;;;15.10;92.40;;;;;;4014855;29;20064;-60
2022/10/20 05:13:28;;;;;;;0.10;0.10;;;15.10;92.40;;;;;;4008249;29;20720;-60
2022/10/20 05:16:12;;;;;;;0.00;0.00;;;15.10;92.30;;;;;;4030284;29;20060;-60
2022/10/20 05:18:57;;;;;;;0.03;0.03;;;15.10;92.30;;;;;;4014592;29;20101;-61
2022/10/20 05:21:38;;;;;;;0.13;0.13;;;15.10;92.30;;;;;;4000187;29;20053;-61
2022/10/20 05:24:20;;;;;;;0.00;0.00;;;15.00;92.30;;;;;;3988715;29;20074;-60
2022/10/20 05:27:02;;;;;;;0.00;0.00;;;15.10;92.30;;;;;;3975983;29;20067;-60
2022/10/20 05:29:46;;;;;;;0.00;0.00;;;15.10;92.30;;;;;;3982021;29;20062;-60
2022/10/20 05:32:30;;;;;;;0.30;0.30;;;15.10;92.50;;;;;;3983373;29;20080;-61
2022/10/20 05:35:17;;;;;;;0.00;0.00;;;15.20;92.70;;;;;;4010352;29;20110;-61
2022/10/20 05:37:58;;;;;;;0.03;0.03;;;15.20;92.70;;;;;;4014977;29;20591;-61
2022/10/20 05:40:39;;;;;;;0.00;0.00;;;15.20;92.60;;;;;;3985893;29;20669;-62
2022/10/20 05:43:21;;;;;;;0.30;0.30;;;15.20;92.50;;;;;;4004049;29;20167;-62
2022/10/20 05:46:12;;;;;;;0.00;0.00;;;15.20;92.50;;;;;;4015792;29;20076;-60
2022/10/20 05:48:56;;;;;;;0.10;0.10;;;15.20;92.80;;;;;;4017167;29;20116;-61
2022/10/20 05:51:38;;;;;;;0.00;0.00;;;15.20;92.40;;;;;;3991074;29;20137;-61
2022/10/20 05:54:21;;;;;;;0.00;0.00;;;15.20;92.50;;;;;;3996355;29;20422;-60
2022/10/20 05:57:05;;;;;;;0.00;0.00;;;15.20;92.50;;;;;;4004820;29;20110;-61
2022/10/20 05:59:46;;;;;;;0.00;0.00;;;15.20;92.50;;;;;;3992269;29;20105;-61
2022/10/20 06:02:28;;;;;;;0.35;0.35;;;15.10;92.40;;;;;;4004749;29;20052;-61
2022/10/20 06:05:10;;;;;;;0.00;0.00;;;15.10;92.20;;;;;;4013483;29;20076;-61
2022/10/20 06:07:57;;;;;;;0.00;0.00;;;15.10;92.20;;;;;;4004085;29;20158;-61
2022/10/20 06:10:43;;;;;;;0.00;0.00;;;15.10;92.20;;;;;;4005535;29;20230;-61
2022/10/20 06:13:24;;;;;;;0.15;0.15;;;15.00;92.50;;;;;;4016391;29;20139;-59
2022/10/20 06:16:07;;;;;;;0.00;0.00;;;15.00;92.10;;;;;;4009835;29;20166;-59
2022/10/20 06:18:47;;;;;;;0.00;0.00;;;15.00;92.10;;;;;;4005390;29;20057;-59
2022/10/20 06:21:30;;;;;;;0.00;0.00;;;15.00;92.10;;;;;;4016648;29;20072;-59
2022/10/20 06:24:12;;;;;;;0.47;0.47;;;15.00;91.90;;;;;;4016948;29;20053;-59
2022/10/20 06:26:53;;;;;;;1.85;1.75;;;14.90;91.80;;;;;;4001998;29;20074;-59
2022/10/20 06:29:34;;;;;;;0.10;0.10;;;14.90;91.90;;;;;;4002136;29;20519;-59
2022/10/20 06:32:17;;;;;;;0.30;0.30;;;14.90;91.90;;;;;;4001744;29;20061;-59
2022/10/20 06:34:57;;;;;;;0.00;0.00;;;14.90;91.90;;;;;;4001979;29;20129;-59
2022/10/20 06:37:38;;;;;;;0.00;0.00;;;14.90;91.90;;;;;;4001884;29;20477;-59
2022/10/20 06:40:20;;;;;;;0.00;0.00;;;14.90;91.80;;;;;;4002029;29;20527;-58
2022/10/20 06:43:01;;;;;;;0.00;0.00;;;14.90;91.80;;;;;;4001381;29;20359;-59
2022/10/20 06:45:42;;;;;;;0.13;0.13;;;14.80;91.80;;;;;;4001827;29;20053;-59
2022/10/20 06:48:23;;;;;;;0.00;0.00;;;14.80;91.70;;;;;;4003798;29;20570;-59
2022/10/20 06:51:06;;;;;;;0.70;0.70;;;14.80;91.80;;;;;;4016985;29;20509;-61
2022/10/20 06:53:48;;;;;;;0.00;0.00;;;14.80;91.70;;;;;;4017111;29;20061;-58
2022/10/20 06:56:31;;;;;;;;;;;14.80;91.70;;;;;;4017277;29;20454;-59
2022/10/20 06:59:12;;;;;;;0.00;0.00;;;14.80;91.90;;;;;;4024313;29;20393;-59
2022/10/20 07:01:53;;;;;;;0.10;0.10;;;14.80;91.60;;;;;;4020376;29;20067;-59
2022/10/20 07:04:33;;;;;;;0.00;0.00;;;14.70;91.40;;;;;;4020399;29;20063;-62
2022/10/20 07:07:14;;;;;;;0.10;0.10;;;14.80;91.20;;;;;;4031274;29;20071;-60
2022/10/20 07:09:55;;;;;;;0.00;0.00;;;14.70;91.30;;;;;;4031745;29;20154;-62
2022/10/20 07:12:37;;;;;;;0.43;0.43;;;14.70;91.20;;;;;;4031459;29;20517;-60
2022/10/20 07:15:18;;;;;;;1.48;1.38;;;14.70;91.10;;;;;;4031872;29;20048;-60
2022/10/20 07:17:59;;;;;;;3.75;0.90;;;14.70;91.20;;;;;;4031815;29;20096;-59
2022/10/20 07:20:40;;;;;;;0.52;0.52;;;14.70;91.30;;;;;;4031642;29;20126;-59
2022/10/20 07:23:21;;;;;;;0.03;0.03;;;14.70;91.20;;;;;;4030020;29;20140;-60
2022/10/20 07:26:04;;;;;;;0.05;0.05;;;14.70;91.20;;;;;;4031815;29;20092;-60
2022/10/20 07:28:49;;;;;;;0.20;0.20;;;14.70;91.00;;;;;;4031578;29;20108;-59
2022/10/20 07:31:37;;;;;;;0.00;0.00;;;14.70;91.10;;;;;;4005576;29;20401;-60
2022/10/20 07:34:21;;;;;;;1.17;1.17;;;14.70;91.10;;;;;;4001473;29;20060;-60
2022/10/20 07:37:06;;;;;;;0.10;0.10;;;14.70;91.10;;;;;;4001703;29;20540;-59
2022/10/20 07:39:47;;;;;;;0.00;0.00;;;14.70;91.00;;;;;;4010684;29;20561;-60
2022/10/20 07:42:29;;;;;;;0.00;0.00;;;14.70;91.30;;;;;;4016587;29;20068;-60
2022/10/20 07:45:11;;;;;;;0.00;0.00;;;14.60;90.90;;;;;;4016891;29;20301;-61
2022/10/20 07:47:52;;;;;;;0.50;0.38;;;14.70;91.00;;;;;;4014703;29;20505;-60
2022/10/20 07:50:33;;;;;;;0.10;0.10;;;14.60;90.80;;;;;;4012068;29;20056;-60
2022/10/20 07:53:14;;;;;;;0.00;0.00;;;14.60;90.90;;;;;;4017468;29;20060;-60
2022/10/20 07:55:55;;;;;;;0.00;0.00;;;14.70;90.90;;;;;;4031412;29;20056;-60
2022/10/20 07:58:36;;;;;;;0.00;0.00;;;14.60;90.60;;;;;;4015719;29;20056;-60
2022/10/20 08:01:18;;;;;;;0.00;0.00;;;14.70;90.70;;;;;;4015919;29;20082;-60
2022/10/20 08:04:00;;;;;;;0.00;0.00;;;14.60;90.70;;;;;;4016139;29;20129;-60
2022/10/20 08:06:41;;;;;;;0.00;0.00;;;14.60;90.70;;;;;;4016188;29;20072;-60
2022/10/20 08:09:22;;;;;;;0.00;0.00;;;14.60;90.70;;;;;;4015525;29;20189;-61
2022/10/20 08:12:03;;;;;;;0.00;0.00;;;14.60;90.50;;;;;;4031065;29;20048;-61
2022/10/20 08:14:44;;;;;;;0.40;0.40;;;14.60;90.40;;;;;;4031164;29;20140;-61
2022/10/20 08:17:27;;;;;;;0.00;0.00;;;14.60;90.60;;;;;;4013977;29;20190;-60
2022/10/20 08:20:09;;;;;;;0.00;0.00;;;14.60;90.70;;;;;;4016025;29;20121;-61
2022/10/20 08:22:54;;;;;;;0.00;0.00;;;14.60;90.70;;;;;;4015556;29;20061;-61
2022/10/20 08:25:35;;;;;;;0.00;0.00;;;14.60;90.70;;;;;;4015407;29;20060;-61
2022/10/20 08:28:16;;;;;;;0.30;0.30;;;14.60;90.60;;;;;;4015940;29;20104;-60
2022/10/20 08:30:57;;;;;;;0.00;0.00;;;14.60;90.50;;;;;;4015864;29;20060;-61
2022/10/20 08:33:39;;;;;;;0.00;0.00;;;14.60;90.70;;;;;;4015637;29;20059;-61
2022/10/20 08:36:21;;;;;;;0.00;0.00;;;14.60;90.50;;;;;;4015318;29;20185;-60
2022/10/20 08:39:02;;;;;;;0.00;0.00;;;14.60;90.60;;;;;;4015787;29;20059;-61
2022/10/20 08:41:47;;;;;;;0.00;0.00;;;14.60;90.50;;;;;;4015391;29;20104;-61
2022/10/20 08:44:48;;;;;;;0.00;0.00;;;14.60;90.60;;;;;;4015588;29;20450;-60
2022/10/20 08:47:32;;;;;;;0.30;0.30;;;14.60;90.50;;;;;;4002243;29;20459;-60
2022/10/20 08:50:17;;;;;;;0.05;0.05;;;14.60;90.50;;;;;;4009108;29;20076;-60
2022/10/20 08:53:00;;;;;;;0.00;0.00;;;14.60;90.40;;;;;;4027649;29;20052;-60
2022/10/20 08:55:44;;;;;;;2.05;1.33;;;14.60;90.60;;;;;;4020125;29;20192;-60
2022/10/20 08:58:25;;;;;;;0.00;0.00;;;14.60;90.40;;;;;;4030296;29;20213;-60
2022/10/20 09:01:17;;;;;;;0.00;0.00;;;14.60;90.50;;;;;;4015541;29;20060;-60
2022/10/20 09:04:02;;;;;;;0.00;0.00;;;14.60;90.50;;;;;;4015117;29;20637;-60
2022/10/20 09:06:47;;;;;;;0.10;0.10;;;14.60;90.40;;;;;;4003443;29;20060;-60
2022/10/20 09:09:31;;;;;;;0.25;0.25;;;14.60;90.40;;;;;;4015750;29;20072;-60
2022/10/20 09:12:14;;;;;;;0.00;0.00;;;14.70;90.50;;;;;;4030907;29;20063;-59
2022/10/20 09:14:56;;;;;;;0.80;0.80;;;14.70;90.50;;;;;;4005081;29;20052;-60
2022/10/20 09:17:37;;;;;;;0.73;0.73;;;14.70;90.50;;;;;;4002490;29;20061;-61
2022/10/20 09:20:22;;;;;;;0.13;0.13;;;14.80;90.30;;;;;;4003525;29;20086;-61
2022/10/20 09:23:04;;;;;;;0.00;0.00;;;14.80;90.30;;;;;;4022033;29;20063;-61
2022/10/20 09:25:56;;;;;;;0.00;0.00;;;14.80;90.20;;;;;;4006145;29;20056;-61
2022/10/20 09:28:37;;;;;;;0.00;0.00;;;14.80;90.40;;;;;;4016657;29;20056;-61
2022/10/20 09:31:37;;;;;;;0.32;0.32;;;14.80;90.60;;;;;;4017102;29;20529;-60
2022/10/20 09:34:24;;;;;;;0.10;0.10;;;14.90;90.60;;;;;;4018255;29;20053;-60
2022/10/20 09:37:18;;;;;;;0.10;0.10;;;14.90;90.40;;;;;;4018706;29;20072;-60
2022/10/20 09:40:02;;;;;;;0.00;0.00;;;14.90;90.50;;;;;;4033183;29;20397;-61
2022/10/20 09:42:51;;;;;;;0.00;0.00;;;14.90;90.50;;;;;;4033688;29;20475;-60
2022/10/20 09:45:34;;;;;;;0.00;0.00;;;14.90;90.60;;;;;;4032938;29;20059;-60
2022/10/20 09:48:21;;;;;;;0.00;0.00;;;14.90;90.50;;;;;;4033254;29;20056;-60
2022/10/20 09:51:05;;;;;;;0.00;0.00;;;14.90;90.50;;;;;;4033162;29;20056;-60
2022/10/20 09:53:55;;;;;;;0.00;0.00;;;14.90;90.40;;;;;;4032749;29;20522;-60
2022/10/20 09:56:40;;;;;;;0.38;0.38;;;14.90;90.40;;;;;;4025648;29;20052;-61
2022/10/20 09:59:25;;;;;;;0.00;0.00;;;14.90;90.40;;;;;;4025423;29;20056;-60
2022/10/20 10:02:27;;;;;;;0.00;0.00;;;14.90;90.30;;;;;;4017821;29;20076;-61
2022/10/20 10:05:18;;;;;;;0.00;0.00;;;14.90;90.40;;;;;;4005685;29;20063;-61
2022/10/20 10:08:00;;;;;;;0.00;0.00;;;14.90;90.20;;;;;;4017244;29;20065;-61
2022/10/20 10:10:41;;;;;;;;;;;14.90;90.30;;;;;;4017221;29;20109;-61
2022/10/20 10:13:26;;;;;;;0.05;0.05;;;14.90;90.30;;;;;;4017009;29;19935;-63
2022/10/20 10:16:09;;;;;;;0.20;0.20;;;14.90;90.30;;;;;;4016911;29;20074;-60
2022/10/20 10:18:57;;;;;;;0.00;0.00;;;14.90;90.20;;;;;;4016801;29;20068;-61
2022/10/20 10:21:47;;;;;;;0.00;0.00;;;14.90;90.40;;;;;;4013778;29;20052;-61
2022/10/20 10:24:39;;;;;;;0.13;0.13;;;14.90;90.40;;;;;;4016650;29;20076;-60
2022/10/20 10:27:24;;;;;;;0.00;0.00;;;14.90;90.50;;;;;;4016510;29;20121;-60
2022/10/20 10:30:29;;;;;;;0.10;0.10;;;14.90;90.50;;;;;;4017236;29;20194;-60
2022/10/20 10:33:25;;;;;;;0.00;0.00;;;14.90;90.50;;;;;;4016867;29;20121;-61
2022/10/20 10:36:11;;;;;;;0.20;0.20;;;14.90;90.40;;;;;;4005657;29;20468;-61
2022/10/20 10:38:52;;;;;;;0.93;0.93;;;14.90;90.50;;;;;;4016863;29;20068;-59
2022/10/20 10:41:49;;;;;;;4.43;1.73;;;15.00;90.50;;;;;;4017101;29;20069;-60
2022/10/20 10:44:43;;;;;;;0.10;0.10;;;14.90;90.90;;;;;;4016527;29;20060;-60
2022/10/20 10:47:49;;;;;;;0.15;0.15;;;15.00;90.40;;;;;;4016517;29;20430;-59
2022/10/20 10:50:36;;;;;;;0.00;0.00;;;14.90;90.40;;;;;;4012435;29;20052;-59
2022/10/20 10:53:31;;;;;;;0.28;0.28;;;15.00;90.50;;;;;;4016368;29;20190;-60
2022/10/20 10:56:23;;;;;;;0.00;0.00;;;15.00;90.40;;;;;;4014940;29;20060;-60
2022/10/20 10:59:11;;;;;;;0.45;0.45;;;15.00;90.40;;;;;;4011725;29;20059;-60
2022/10/20 11:02:28;;;;;;;0.10;0.10;;;15.00;90.40;;;;;;4024351;29;20412;-60
2022/10/20 11:05:33;;;;;;;0.00;0.00;;;15.00;90.40;;;;;;4024002;29;20393;-60
2022/10/20 11:08:26;;;;;;;0.00;0.00;;;15.00;90.40;;;;;;4030876;29;20197;-60
2022/10/20 11:11:15;;;;;;;0.00;0.00;;;15.00;90.30;;;;;;4031310;29;20060;-60
2022/10/20 11:14:10;;;;;;;0.80;0.80;;;15.10;90.40;;;;;;4030051;29;20607;-61
2022/10/20 11:17:05;;;;;;;0.35;0.35;;;15.00;90.30;;;;;;4007299;29;20137;-61
2022/10/20 11:20:11;;;;;;;0.50;0.50;;;15.10;90.40;;;;;;4001778;29;20281;-61
2022/10/20 11:23:18;;;;;;;0.10;0.10;;;15.10;90.30;;;;;;4029813;29;20048;-61
2022/10/20 11:26:08;;;;;;;0.10;0.10;;;15.10;90.20;;;;;;4000362;29;20056;-61
2022/10/20 11:28:52;;;;;;;0.00;0.00;;;15.10;90.60;;;;;;4029724;29;20488;-60
2022/10/20 11:31:40;;;;;;;0.00;0.00;;;15.10;90.10;;;;;;4014121;29;20064;-61
2022/10/20 11:34:27;;;;;;;0.88;0.82;;;15.20;90.10;;;;;;4031554;29;20090;-61
2022/10/20 11:37:20;;;;;;;0.00;0.00;;;15.20;90.00;;;;;;4031272;29;20128;-62
2022/10/20 11:40:18;;;;;;;0.00;0.00;;;15.20;89.90;;;;;;4029961;29;20051;-63
2022/10/20 11:43:08;;;;;;;0.00;0.00;;;15.20;89.80;;;;;;4019137;29;20052;-62
2022/10/20 11:45:54;;;;;;;0.10;0.10;;;15.20;89.80;;;;;;4015906;29;20057;-60
2022/10/20 11:48:42;;;;;;;0.00;0.00;;;15.20;89.80;;;;;;4003829;29;20797;-60
2022/10/20 11:51:50;;;;;;;0.10;0.10;;;15.20;89.70;;;;;;3999912;29;20458;-60
2022/10/20 11:54:57;;;;;;;1.30;1.30;;;15.30;89.80;;;;;;4000428;29;20064;-60
2022/10/20 11:57:56;;;;;;;0.00;0.00;;;15.30;89.80;;;;;;4008487;29;20125;-60
2022/10/20 12:00:54;;;;;;;0.05;0.05;;;15.30;89.80;;;;;;4014920;29;20489;-60
2022/10/20 12:03:53;;;;;;;0.30;0.30;;;15.30;89.70;;;;;;3984000;29;20526;-61
2022/10/20 12:07:15;;;;;;;0.00;0.00;;;15.30;89.70;;;;;;3998543;29;20060;-62
2022/10/20 12:10:09;;;;;;;3.35;0.55;;;15.30;89.60;;;;;;4001388;29;20061;-60
2022/10/20 12:13:00;;;;;;;0.00;0.00;;;15.30;90.10;;;;;;4014222;29;20112;-60
2022/10/20 12:15:46;;;;;;;0.00;0.00;;;15.30;89.50;;;;;;4007598;29;20440;-60
2022/10/20 12:18:29;;;;;;;0.00;0.00;;;15.30;89.60;;;;;;4000525;29;20068;-60
2022/10/20 12:21:11;;;;;;;0.00;0.00;;;15.30;89.60;;;;;;3984880;29;20053;-60
2022/10/20 12:24:04;;;;;;;1.45;1.35;;;15.30;89.70;;;;;;3999521;29;20057;-67
2022/10/20 12:27:24;;;;;;;0.00;0.00;;;15.30;89.80;;;;;;4000058;29;20130;-61
2022/10/20 12:30:43;;;;;;;0.08;0.08;;;15.30;90.20;;;;;;3998982;29;20053;-63
2022/10/20 12:33:40;;;;;;;0.00;0.00;;;15.30;89.70;;;;;;4000471;29;20056;-65
2022/10/20 12:36:31;;;;;;;0.00;0.00;;;15.30;89.70;;;;;;3990174;29;20060;-62
2022/10/20 12:39:23;;;;;;;0.10;0.10;;;15.30;89.80;;;;;;4000856;29;20139;-62
2022/10/20 12:42:07;;;;;;;0.10;0.10;;;15.30;89.90;;;;;;3999549;29;20069;-62
2022/10/20 12:44:49;;;;;;;0.00;0.00;;;15.30;89.90;;;;;;4014169;29;20064;-61
2022/10/20 12:47:34;;;;;;;0.85;0.85;;;15.30;90.00;;;;;;4001309;29;20053;-62
2022/10/20 12:50:28;;;;;;;0.10;0.10;;;15.30;90.00;;;;;;4001582;29;20097;-61
2022/10/20 12:53:13;;;;;;;0.00;0.00;;;15.30;90.00;;;;;;4003033;29;20056;-60
2022/10/20 12:55:58;;;;;;;0.00;0.00;;;15.30;90.00;;;;;;4018094;29;20160;-61
2022/10/20 12:59:00;;;;;;;0.00;0.00;;;15.30;90.00;;;;;;3998283;29;20765;-62
2022/10/20 13:02:40;;;;;;;0.35;0.35;;;15.30;90.00;;;;;;4023566;29;20384;-61
2022/10/20 13:05:43;;;;;;;0.00;0.00;;;15.30;90.00;;;;;;4033513;29;20068;-61
2022/10/20 13:08:30;;;;;;;0.00;0.00;;;15.30;90.00;;;;;;4032429;29;20499;-61
2022/10/20 13:11:40;;;;;;;0.00;0.00;;;15.30;90.00;;;;;;4018147;29;20056;-61
2022/10/20 13:14:49;;;;;;;0.00;0.00;;;15.30;90.10;;;;;;4000408;29;20145;-61
2022/10/20 13:17:51;;;;;;;0.20;0.20;;;15.30;90.10;;;;;;4024174;29;20055;-61
2022/10/20 13:20:43;;;;;;;0.08;0.08;;;15.30;90.10;;;;;;4019722;29;20051;-60
2022/10/20 13:23:30;;;;;;;0.00;0.00;;;15.30;90.10;;;;;;4033275;29;20165;-60
2022/10/20 13:26:18;;;;;;;0.00;0.00;;;15.30;90.60;;;;;;4033742;29;20205;-61
2022/10/20 13:29:01;;;;;;;0.00;0.00;;;15.30;90.20;;;;;;4013092;29;20056;-61
2022/10/20 13:31:47;;;;;;;0.00;0.00;;;15.30;90.30;;;;;;4033310;29;20052;-61
2022/10/20 13:34:32;;;;;;;0.00;0.00;;;15.30;90.30;;;;;;4031765;29;20472;-60
2022/10/20 13:37:35;;;;;;;0.00;0.00;;;15.30;90.40;;;;;;4022091;29;20059;-61
2022/10/20 13:40:24;;;;;;;0.00;0.00;;;15.30;90.80;;;;;;4031839;29;20393;-60
2022/10/20 13:43:21;;;;;;;1.00;1.00;;;15.30;90.50;;;;;;4033134;29;20059;-60
2022/10/20 13:46:12;;;;;;;0.00;0.00;;;15.30;90.60;;;;;;4018145;29;20504;-60
2022/10/20 13:49:10;;;;;;;0.65;0.65;;;15.30;90.60;;;;;;4031398;29;20056;-60
2022/10/20 13:51:55;;;;;;;0.30;0.30;;;15.30;90.70;;;;;;4032815;29;20150;-60
2022/10/20 13:54:43;;;;;;;1.85;1.20;;;15.30;90.80;;;;;;4033270;29;20104;-61
2022/10/20 13:57:31;;;;;;;0.10;0.10;;;15.30;90.70;;;;;;4033022;29;20191;-60
2022/10/20 14:00:19;;;;;;;0.30;0.30;;;15.30;90.80;;;;;;4032455;29;20476;-59
2022/10/20 14:03:03;;;;;;;0.20;0.20;;;15.20;90.80;;;;;;4032647;29;20071;-60
2022/10/20 14:05:44;;;;;;;0.00;0.00;;;15.30;90.90;;;;;;4032160;29;20052;-60
2022/10/20 14:08:25;;;;;;;0.00;0.00;;;15.20;90.90;;;;;;4032390;29;20434;-59
2022/10/20 14:11:10;;;;;;;0.70;0.70;;;15.20;91.30;;;;;;4017541;29;20080;-60
2022/10/20 14:13:52;;;;;;;0.05;0.05;;;15.20;90.90;;;;;;4017430;29;20056;-60
2022/10/20 14:16:33;;;;;;;0.50;0.50;;;15.20;91.00;;;;;;4017274;29;20056;-60
2022/10/20 14:19:14;;;;;;;0.00;0.00;;;15.20;91.00;;;;;;4023445;29;20408;-59
2022/10/20 14:21:57;;;;;;;0.00;0.00;;;15.20;91.20;;;;;;4032302;29;20081;-59
2022/10/20 14:24:49;;;;;;;0.00;0.00;;;15.30;91.40;;;;;;4032814;29;20056;-63
2022/10/20 14:27:32;;;;;;;0.87;0.87;;;15.30;91.30;;;;;;4033141;29;20409;-63